Time;durP1;ratioP1;P1;durP2;ratioP2;P2;SDS_P1;SDS_P2;PMS_P1;PMS_P2;Temp;Humidity;BMP_temperature;BMP_pressure;BME280_temperature;BME280_humidity;BME280_pressure;Samples;Min_cycle;Max_cycle;Signal;HPM_P1;HPM_P2
2021/01/28 00:00:23;;;;;;;11.27;6.07;;;2.40;99.70;;;;;;4953612;29;20455;-68
2021/01/28 00:02:49;;;;;;;10.33;5.67;;;2.30;99.70;;;;;;4953532;28;20959;-68
2021/01/28 00:05:17;;;;;;;12.80;6.60;;;2.40;99.70;;;;;;4953432;29;20448;-68
2021/01/28 00:07:43;;;;;;;11.90;6.00;;;2.40;99.70;;;;;;4953068;29;20455;-68
2021/01/28 00:10:10;;;;;;;12.83;6.80;;;2.60;99.70;;;;;;4953286;29;20938;-68
2021/01/28 00:12:36;;;;;;;12.03;6.53;;;2.60;99.70;;;;;;4953307;28;20448;-68
2021/01/28 00:15:06;;;;;;;12.93;6.70;;;2.60;99.70;;;;;;4953232;29;20459;-68
2021/01/28 00:17:32;;;;;;;11.60;6.40;;;2.60;99.70;;;;;;4953135;29;20451;-68
2021/01/28 00:19:58;;;;;;;12.70;6.47;;;2.50;99.70;;;;;;4953052;29;20451;-68
2021/01/28 00:22:25;;;;;;;12.80;6.70;;;2.50;99.70;;;;;;4953089;29;20484;-68
2021/01/28 00:24:51;;;;;;;12.87;6.70;;;2.50;99.70;;;;;;4952752;29;21013;-68
2021/01/28 00:27:17;;;;;;;12.33;6.80;;;2.40;99.70;;;;;;4952796;29;20445;-68
2021/01/28 00:29:44;;;;;;;11.83;6.57;;;2.40;99.70;;;;;;4953238;29;20586;-68
2021/01/28 00:32:11;;;;;;;11.87;6.40;;;2.40;99.70;;;;;;4952946;29;20949;-68
2021/01/28 00:34:37;;;;;;;13.00;6.50;;;2.40;99.70;;;;;;4953222;28;20476;-68
2021/01/28 00:37:03;;;;;;;12.60;7.00;;;2.50;99.70;;;;;;4952331;28;20483;-68
2021/01/28 00:39:30;;;;;;;12.00;6.53;;;2.40;99.70;;;;;;4951983;28;20444;-68
2021/01/28 00:41:56;;;;;;;16.30;6.87;;;2.40;99.70;;;;;;4952466;29;20479;-68
2021/01/28 00:44:22;;;;;;;14.60;7.30;;;2.40;99.70;;;;;;4952476;28;20475;-68
2021/01/28 00:46:48;;;;;;;13.83;7.07;;;2.40;99.70;;;;;;4952221;29;20452;-68
2021/01/28 00:49:15;;;;;;;12.33;7.00;;;2.40;99.70;;;;;;4952598;29;20456;-68
2021/01/28 00:51:41;;;;;;;12.43;7.00;;;2.50;99.70;;;;;;4952301;29;20499;-68
2021/01/28 00:54:08;;;;;;;11.63;6.80;;;2.40;99.70;;;;;;4952521;28;20471;-68
2021/01/28 00:56:34;;;;;;;11.10;6.13;;;2.40;99.70;;;;;;4952445;29;20875;-68
2021/01/28 00:59:00;;;;;;;12.70;6.50;;;2.40;99.70;;;;;;4952180;29;20448;-67
2021/01/28 01:01:26;;;;;;;12.60;5.87;;;2.50;99.70;;;;;;4952433;29;20448;-68
2021/01/28 01:03:52;;;;;;;12.17;6.30;;;2.50;99.70;;;;;;4952267;28;20925;-68
2021/01/28 01:06:19;;;;;;;9.87;5.73;;;2.40;99.70;;;;;;4952422;29;20875;-68
2021/01/28 01:08:45;;;;;;;10.17;5.80;;;2.50;99.70;;;;;;4952098;29;20958;-68
2021/01/28 01:11:12;;;;;;;10.80;6.00;;;2.50;99.70;;;;;;4952468;29;20448;-68
2021/01/28 01:13:40;;;;;;;17.40;7.93;;;2.60;99.70;;;;;;4952113;28;21005;-68
2021/01/28 01:16:10;;;;;;;17.87;8.63;;;2.50;99.70;;;;;;4952434;29;20448;-68
2021/01/28 01:18:36;;;;;;;23.80;8.80;;;2.50;99.70;;;;;;4951920;28;20449;-68
2021/01/28 01:21:04;;;;;;;16.07;8.30;;;2.40;99.70;;;;;;4952275;29;20452;-68
2021/01/28 01:23:32;;;;;;;14.80;7.80;;;2.40;99.70;;;;;;4951207;28;20499;-68
2021/01/28 01:25:58;;;;;;;18.63;8.50;;;2.40;99.70;;;;;;4952286;29;20452;-68
2021/01/28 01:28:25;;;;;;;16.97;8.43;;;2.30;99.70;;;;;;4951784;29;20764;-67
2021/01/28 01:30:51;;;;;;;19.33;8.80;;;2.30;99.70;;;;;;4952238;29;20452;-68
2021/01/28 01:33:17;;;;;;;20.23;8.17;;;2.30;99.70;;;;;;4951950;28;20471;-68
2021/01/28 01:35:43;;;;;;;14.40;7.87;;;2.30;99.70;;;;;;4951895;29;20447;-68
2021/01/28 01:38:10;;;;;;;13.20;6.80;;;2.30;99.70;;;;;;4951338;29;20448;-68
2021/01/28 01:40:40;;;;;;;15.47;7.13;;;2.40;99.70;;;;;;4951845;29;20448;-68
2021/01/28 01:43:08;;;;;;;15.77;7.40;;;2.50;99.70;;;;;;4951501;28;20495;-68
2021/01/28 01:45:38;;;;;;;13.83;7.47;;;2.50;99.70;;;;;;4951827;28;20455;-68
2021/01/28 01:48:08;;;;;;;14.13;7.10;;;2.50;99.70;;;;;;4951258;29;20455;-68
2021/01/28 01:50:41;;;;;;;13.77;7.23;;;2.50;99.70;;;;;;4951372;28;20825;-68
2021/01/28 01:53:13;;;;;;;15.80;7.40;;;2.50;99.70;;;;;;4951404;28;20520;-68
2021/01/28 01:55:45;;;;;;;12.87;6.20;;;2.50;99.70;;;;;;4951603;29;20507;-69
2021/01/28 01:58:14;;;;;;;10.60;5.77;;;2.50;99.70;;;;;;4951226;28;20453;-68
2021/01/28 02:00:41;;;;;;;10.57;5.90;;;2.50;99.70;;;;;;4951143;29;20445;-68
2021/01/28 02:03:12;;;;;;;10.70;5.63;;;2.50;99.70;;;;;;4951176;28;20492;-68
2021/01/28 02:05:42;;;;;;;8.77;5.30;;;2.60;99.70;;;;;;4951288;28;20889;-68
2021/01/28 02:08:11;;;;;;;11.57;5.57;;;2.70;99.70;;;;;;4951137;29;20799;-68
2021/01/28 02:10:37;;;;;;;9.97;5.37;;;2.70;99.70;;;;;;4951265;29;20698;-68
2021/01/28 02:13:04;;;;;;;10.80;5.00;;;2.60;99.70;;;;;;4951307;28;20460;-68
2021/01/28 02:15:31;;;;;;;10.50;5.20;;;2.70;99.70;;;;;;4951134;29;20942;-68
2021/01/28 02:18:00;;;;;;;8.73;4.97;;;2.60;99.70;;;;;;4951218;29;20941;-68
2021/01/28 02:20:41;;;;;;;9.40;5.30;;;2.70;99.70;;;;;;4951089;29;20462;-69
2021/01/28 02:23:17;;;;;;;9.77;5.40;;;2.70;99.70;;;;;;4951309;28;20546;-68
2021/01/28 02:25:45;;;;;;;10.70;5.83;;;2.80;99.70;;;;;;4950427;29;20451;-68
2021/01/28 02:28:15;;;;;;;10.83;5.63;;;2.80;99.70;;;;;;4951033;29;20523;-68
2021/01/28 02:30:41;;;;;;;10.40;5.47;;;2.80;99.70;;;;;;4951029;29;20444;-68
2021/01/28 02:33:11;;;;;;;11.20;5.43;;;2.80;99.70;;;;;;4951368;28;20464;-68
2021/01/28 02:35:38;;;;;;;11.20;5.73;;;2.70;99.70;;;;;;4951119;29;20448;-68
2021/01/28 02:38:07;;;;;;;10.23;5.27;;;2.70;99.70;;;;;;4950931;29;20455;-69
2021/01/28 02:40:33;;;;;;;13.20;5.87;;;2.70;99.70;;;;;;4951336;29;20561;-68
2021/01/28 02:43:01;;;;;;;10.40;5.40;;;2.70;99.70;;;;;;4951109;28;20523;-68
2021/01/28 02:45:30;;;;;;;10.73;5.30;;;2.80;99.70;;;;;;4951081;29;20440;-68
2021/01/28 02:47:58;;;;;;;11.60;5.70;;;2.80;99.70;;;;;;4950696;29;20455;-68
2021/01/28 02:50:27;;;;;;;12.73;6.40;;;2.70;99.70;;;;;;4951253;29;20456;-68
2021/01/28 02:52:54;;;;;;;12.80;6.37;;;2.60;99.70;;;;;;4950779;28;20464;-68
2021/01/28 02:55:21;;;;;;;16.53;7.00;;;2.70;99.70;;;;;;4951396;29;20456;-68
2021/01/28 02:57:48;;;;;;;12.13;6.70;;;2.60;99.70;;;;;;4950701;28;20863;-68
2021/01/28 03:00:19;;;;;;;12.90;6.30;;;2.60;99.70;;;;;;4951065;29;20503;-68
2021/01/28 03:02:46;;;;;;;12.17;6.10;;;2.60;99.70;;;;;;4952675;28;20487;-68
2021/01/28 03:05:12;;;;;;;10.20;5.47;;;2.60;99.70;;;;;;4954662;29;20451;-68
2021/01/28 03:07:38;;;;;;;10.87;5.40;;;2.60;99.70;;;;;;4954235;28;20452;-69
2021/01/28 03:10:06;;;;;;;8.70;4.90;;;2.70;99.70;;;;;;4954646;29;20448;-68
2021/01/28 03:12:32;;;;;;;9.23;5.03;;;2.70;99.70;;;;;;4954157;28;20448;-68
2021/01/28 03:14:58;;;;;;;8.63;5.03;;;2.80;99.70;;;;;;4954457;29;20506;-68
2021/01/28 03:17:25;;;;;;;10.83;5.50;;;2.80;99.70;;;;;;4953830;29;20455;-68
2021/01/28 03:19:51;;;;;;;9.83;5.20;;;2.80;99.70;;;;;;4954493;29;20448;-68
2021/01/28 03:22:17;;;;;;;9.97;5.47;;;2.80;99.70;;;;;;4954070;29;20482;-68
2021/01/28 03:24:44;;;;;;;10.77;4.90;;;2.80;99.70;;;;;;4953236;28;20468;-68
2021/01/28 03:27:10;;;;;;;8.77;4.40;;;2.80;99.70;;;;;;4953711;29;20444;-68
2021/01/28 03:29:37;;;;;;;8.30;4.50;;;2.80;99.70;;;;;;4953916;29;20503;-68
2021/01/28 03:32:03;;;;;;;8.73;4.87;;;2.80;99.70;;;;;;4953945;29;20613;-68
2021/01/28 03:34:30;;;;;;;7.67;4.40;;;2.80;99.70;;;;;;4953637;28;20468;-68
2021/01/28 03:36:56;;;;;;;7.73;4.20;;;2.90;99.70;;;;;;4953592;29;20964;-68
2021/01/28 03:39:23;;;;;;;8.37;4.63;;;3.00;99.70;;;;;;4953672;29;20451;-69
2021/01/28 03:41:49;;;;;;;6.90;3.97;;;2.90;99.70;;;;;;4953787;29;20483;-68
2021/01/28 03:44:15;;;;;;;6.50;3.90;;;3.00;99.70;;;;;;4953451;28;20492;-68
2021/01/28 03:46:41;;;;;;;7.37;3.90;;;3.00;99.70;;;;;;4953708;29;20459;-66
2021/01/28 03:49:07;;;;;;;7.60;4.10;;;3.00;99.70;;;;;;4953517;29;20444;-68
2021/01/28 03:51:34;;;;;;;7.50;4.37;;;3.00;99.70;;;;;;4953788;29;20919;-68
2021/01/28 03:54:00;;;;;;;7.03;4.20;;;3.00;99.70;;;;;;4953246;28;20459;-68
2021/01/28 03:56:26;;;;;;;7.20;4.20;;;3.00;99.70;;;;;;4953587;29;20827;-68
2021/01/28 03:58:53;;;;;;;7.70;4.10;;;3.00;99.70;;;;;;4953131;29;20470;-68
2021/01/28 04:01:19;;;;;;;7.47;4.27;;;3.00;99.70;;;;;;4953461;29;20448;-68
2021/01/28 04:03:45;;;;;;;6.40;3.60;;;3.10;99.70;;;;;;4952990;28;21025;-68
2021/01/28 04:06:11;;;;;;;6.43;4.00;;;3.00;99.70;;;;;;4953402;29;20444;-68
2021/01/28 04:08:38;;;;;;;8.23;4.00;;;3.10;99.70;;;;;;4952955;29;20452;-68
2021/01/28 04:11:05;;;;;;;6.60;3.80;;;3.10;99.70;;;;;;4953011;29;20459;-68
2021/01/28 04:13:31;;;;;;;8.03;4.10;;;3.10;99.70;;;;;;4953000;28;20845;-68
2021/01/28 04:15:57;;;;;;;9.20;3.80;;;3.10;99.70;;;;;;4952989;29;20452;-68
2021/01/28 04:18:23;;;;;;;8.00;4.30;;;3.10;99.70;;;;;;4952847;29;20451;-68
2021/01/28 04:20:50;;;;;;;8.33;4.30;;;3.10;99.70;;;;;;4953074;29;20452;-68
2021/01/28 04:23:16;;;;;;;8.50;4.50;;;3.00;99.70;;;;;;4952897;28;20518;-68
2021/01/28 04:25:43;;;;;;;6.27;3.70;;;3.10;99.70;;;;;;4952240;29;20502;-69
2021/01/28 04:28:10;;;;;;;7.80;4.17;;;3.00;99.70;;;;;;4952609;29;20452;-68
2021/01/28 04:30:36;;;;;;;6.87;3.90;;;3.00;99.70;;;;;;4952615;29;20451;-68
2021/01/28 04:33:04;;;;;;;7.63;4.40;;;3.00;99.70;;;;;;4952917;28;20818;-68
2021/01/28 04:35:30;;;;;;;8.87;4.10;;;2.90;99.70;;;;;;4952822;29;20455;-68
2021/01/28 04:37:57;;;;;;;5.80;3.83;;;3.00;99.70;;;;;;4952443;29;20452;-68
2021/01/28 04:40:29;;;;;;;5.77;3.67;;;3.00;99.70;;;;;;4952500;29;20801;-68
2021/01/28 04:42:58;;;;;;;7.87;4.20;;;3.00;99.70;;;;;;4952776;28;20515;-67
2021/01/28 04:45:27;;;;;;;8.10;4.43;;;3.00;99.70;;;;;;4953003;29;20448;-67
2021/01/28 04:47:56;;;;;;;7.43;4.20;;;3.00;99.70;;;;;;4952648;28;20444;-67
2021/01/28 04:50:25;;;;;;;11.43;4.70;;;3.00;99.70;;;;;;4952744;29;20452;-67
2021/01/28 04:52:54;;;;;;;7.90;4.10;;;3.00;99.70;;;;;;4952326;28;20986;-67
2021/01/28 04:55:29;;;;;;;7.40;4.20;;;3.00;99.70;;;;;;4952632;29;20452;-67
2021/01/28 04:57:55;;;;;;;8.17;3.87;;;3.00;99.70;;;;;;4951997;29;20456;-67
2021/01/28 05:00:22;;;;;;;7.90;4.23;;;3.00;99.70;;;;;;4952242;29;20865;-67
2021/01/28 05:02:54;;;;;;;7.70;4.10;;;3.00;99.70;;;;;;4951858;28;20488;-67
2021/01/28 05:05:20;;;;;;;8.43;4.20;;;3.00;99.70;;;;;;4952384;29;21053;-67
2021/01/28 05:07:47;;;;;;;8.57;4.90;;;3.10;99.70;;;;;;4951745;29;20895;-67
2021/01/28 05:10:16;;;;;;;8.80;5.07;;;3.00;99.70;;;;;;4952195;29;20483;-67
2021/01/28 05:12:53;;;;;;;9.63;5.50;;;3.10;99.70;;;;;;4952071;28;20440;-68
2021/01/28 05:15:22;;;;;;;8.03;4.70;;;3.00;99.70;;;;;;4952357;29;21035;-67
2021/01/28 05:17:58;;;;;;;10.67;5.40;;;3.00;99.70;;;;;;4951596;29;20476;-67
2021/01/28 05:20:26;;;;;;;11.90;5.40;;;3.00;99.70;;;;;;4952170;29;20516;-67
2021/01/28 05:23:01;;;;;;;12.47;5.70;;;2.90;99.70;;;;;;4951656;28;20495;-67
2021/01/28 05:25:35;;;;;;;12.80;6.00;;;2.90;99.70;;;;;;4950671;28;20443;-67
2021/01/28 05:28:17;;;;;;;13.03;6.40;;;2.90;99.70;;;;;;4951444;29;20444;-67
2021/01/28 05:30:46;;;;;;;13.40;6.70;;;2.90;99.70;;;;;;4951889;29;20452;-67
2021/01/28 05:33:29;;;;;;;13.37;6.20;;;2.90;99.70;;;;;;4951612;28;20559;-67
2021/01/28 05:36:21;;;;;;;10.00;5.90;;;2.90;99.70;;;;;;4951831;29;20448;-67
2021/01/28 05:38:49;;;;;;;13.87;6.97;;;2.90;99.70;;;;;;4951358;29;20455;-67
2021/01/28 05:41:28;;;;;;;9.83;5.37;;;2.90;99.70;;;;;;4951828;29;20452;-67
2021/01/28 05:43:54;;;;;;;12.63;6.60;;;3.00;99.70;;;;;;4951525;28;20582;-67
2021/01/28 05:46:23;;;;;;;14.13;6.63;;;3.00;99.70;;;;;;4951887;29;20475;-67
2021/01/28 05:49:04;;;;;;;12.17;6.23;;;3.00;99.70;;;;;;4951247;28;20444;-67
2021/01/28 05:51:39;;;;;;;16.20;7.30;;;3.00;99.70;;;;;;4951723;29;20759;-67
2021/01/28 05:54:07;;;;;;;16.20;8.10;;;2.90;99.70;;;;;;4951334;28;20471;-67
2021/01/28 05:56:50;;;;;;;14.80;7.10;;;2.90;99.70;;;;;;4951586;29;20455;-67
2021/01/28 05:59:26;;;;;;;16.83;7.57;;;3.00;99.70;;;;;;4951331;29;20448;-67
2021/01/28 06:02:12;;;;;;;17.63;7.80;;;2.90;99.70;;;;;;4951533;29;20945;-67
2021/01/28 06:04:52;;;;;;;19.97;8.37;;;3.00;99.70;;;;;;4946469;29;20499;-67
2021/01/28 06:07:33;;;;;;;16.73;8.40;;;2.90;99.70;;;;;;4951390;29;20495;-68
2021/01/28 06:10:32;;;;;;;15.10;7.30;;;3.00;99.70;;;;;;4951368;29;20765;-67
2021/01/28 06:13:13;;;;;;;16.63;7.70;;;3.00;99.70;;;;;;4951420;28;20460;-67
2021/01/28 06:15:50;;;;;;;16.57;7.57;;;2.90;99.70;;;;;;4951326;29;20961;-67
2021/01/28 06:18:36;;;;;;;15.70;7.70;;;2.90;99.70;;;;;;4951189;29;20470;-67
2021/01/28 06:21:27;;;;;;;14.00;7.43;;;2.90;99.70;;;;;;4951392;29;20444;-67
2021/01/28 06:24:14;;;;;;;13.77;7.60;;;2.90;99.70;;;;;;4950581;28;20495;-68
2021/01/28 06:26:49;;;;;;;16.43;7.73;;;2.90;99.70;;;;;;4951333;29;20444;-67
2021/01/28 06:29:46;;;;;;;15.83;7.60;;;2.90;99.70;;;;;;4951772;29;20510;-67
2021/01/28 06:32:41;;;;;;;17.67;7.63;;;3.00;99.70;;;;;;4950393;29;20472;-67
2021/01/28 06:35:22;;;;;;;16.73;7.73;;;3.00;99.70;;;;;;4946751;29;20460;-67
2021/01/28 06:38:03;;;;;;;13.57;6.70;;;3.00;99.70;;;;;;4953315;29;20455;-67
2021/01/28 06:40:32;;;;;;;17.73;8.00;;;3.00;99.70;;;;;;4954872;29;20447;-67
2021/01/28 06:43:04;;;;;;;15.53;7.00;;;3.00;99.70;;;;;;4954042;28;20849;-67
2021/01/28 06:45:34;;;;;;;16.10;7.57;;;3.10;99.70;;;;;;4955140;29;20457;-67
2021/01/28 06:48:06;;;;;;;20.50;8.50;;;3.10;99.70;;;;;;4953985;29;20471;-67
2021/01/28 06:50:40;;;;;;;22.93;8.70;;;3.10;99.70;;;;;;4954724;29;20515;-67
2021/01/28 06:53:22;;;;;;;17.47;9.23;;;3.10;99.70;;;;;;4954016;28;20511;-67
2021/01/28 06:55:53;;;;;;;20.70;8.80;;;3.10;99.70;;;;;;4954400;29;20487;-67
2021/01/28 06:58:48;;;;;;;23.87;9.60;;;3.00;99.70;;;;;;4953361;29;20455;-67
2021/01/28 07:01:19;;;;;;;21.63;9.53;;;3.00;99.70;;;;;;4952029;28;20511;-68
2021/01/28 07:04:09;;;;;;;20.57;10.20;;;3.00;99.70;;;;;;4945342;28;20578;-67
2021/01/28 07:06:43;;;;;;;21.30;9.80;;;3.00;99.70;;;;;;4951726;29;20483;-67
2021/01/28 07:09:20;;;;;;;23.60;10.20;;;3.00;99.70;;;;;;4952981;28;20440;-67
2021/01/28 07:11:47;;;;;;;22.87;10.93;;;2.90;99.70;;;;;;4951053;28;20807;-67
2021/01/28 07:14:14;;;;;;;21.30;9.90;;;2.80;99.70;;;;;;4952446;28;20472;-67
2021/01/28 07:16:47;;;;;;;22.97;10.57;;;2.90;99.70;;;;;;4953661;28;20448;-68
2021/01/28 07:19:20;;;;;;;24.00;10.83;;;2.90;99.70;;;;;;4973472;28;20479;-67
2021/01/28 07:21:50;;;;;;;21.30;10.80;;;2.90;99.70;;;;;;4973198;28;20452;-67
2021/01/28 07:24:33;;;;;;;26.50;11.30;;;2.80;99.70;;;;;;4972958;28;20494;-67
2021/01/28 07:27:01;;;;;;;24.60;11.00;;;2.80;99.70;;;;;;4971607;28;20467;-67
2021/01/28 07:29:55;;;;;;;29.20;12.17;;;2.80;99.70;;;;;;4973296;28;20443;-67
2021/01/28 07:32:53;;;;;;;20.60;10.30;;;2.80;99.70;;;;;;4973021;28;20913;-67
2021/01/28 07:35:45;;;;;;;23.80;10.60;;;2.80;99.70;;;;;;4946028;28;20457;-68
2021/01/28 07:38:44;;;;;;;21.37;10.00;;;2.90;99.70;;;;;;4945589;28;20460;-67
2021/01/28 07:41:25;;;;;;;21.10;9.77;;;2.90;99.70;;;;;;4952637;28;20809;-67
2021/01/28 07:43:54;;;;;;;21.40;10.10;;;2.90;99.70;;;;;;4945753;28;20495;-67
2021/01/28 07:46:38;;;;;;;20.80;10.30;;;2.90;99.70;;;;;;4953557;28;20456;-67
2021/01/28 07:49:15;;;;;;;23.80;10.97;;;2.90;99.70;;;;;;4951493;28;20452;-67
2021/01/28 07:51:43;;;;;;;25.67;10.50;;;3.00;99.70;;;;;;4956790;28;20455;-67
2021/01/28 07:54:36;;;;;;;22.10;10.50;;;3.10;99.70;;;;;;4960399;28;20468;-67
2021/01/28 07:57:04;;;;;;;24.40;10.40;;;3.10;99.70;;;;;;4952752;28;20444;-67
2021/01/28 07:59:37;;;;;;;21.47;10.23;;;3.10;99.70;;;;;;4953130;28;20452;-67
2021/01/28 08:02:22;;;;;;;23.90;10.50;;;3.10;99.70;;;;;;4956350;28;20508;-67
2021/01/28 08:04:53;;;;;;;19.20;9.43;;;3.20;99.70;;;;;;4952745;29;20479;-67
2021/01/28 08:07:24;;;;;;;18.90;9.20;;;3.20;99.70;;;;;;4952155;29;20443;-67
2021/01/28 08:09:52;;;;;;;18.10;8.87;;;3.20;99.70;;;;;;4951379;29;20459;-67
2021/01/28 08:12:30;;;;;;;21.47;9.57;;;3.20;99.70;;;;;;4952897;29;20483;-67
2021/01/28 08:14:58;;;;;;;18.70;9.10;;;3.30;99.70;;;;;;4952755;29;20471;-67
2021/01/28 08:17:30;;;;;;;19.80;10.37;;;3.30;99.70;;;;;;4952748;29;20444;-66
2021/01/28 08:20:17;;;;;;;19.40;9.30;;;3.30;99.70;;;;;;4956005;28;20440;-67
2021/01/28 08:22:52;;;;;;;23.23;9.70;;;3.30;99.70;;;;;;4952189;28;20934;-67
2021/01/28 08:25:19;;;;;;;20.17;9.20;;;3.30;99.70;;;;;;4951172;28;20448;-65
2021/01/28 08:27:46;;;;;;;20.10;9.70;;;3.30;99.70;;;;;;4950985;28;20461;-64
2021/01/28 08:30:15;;;;;;;22.10;10.87;;;3.30;99.70;;;;;;4954188;28;20468;-64
2021/01/28 08:32:43;;;;;;;18.90;9.50;;;3.40;99.70;;;;;;4947054;28;20735;-64
2021/01/28 08:35:16;;;;;;;22.60;10.07;;;3.40;99.70;;;;;;4952397;28;20432;-65
2021/01/28 08:37:43;;;;;;;18.07;8.67;;;3.30;99.70;;;;;;4950926;28;20527;-64
2021/01/28 08:40:15;;;;;;;21.50;8.73;;;3.40;99.70;;;;;;4952605;29;20455;-66
2021/01/28 08:42:42;;;;;;;21.20;9.00;;;3.30;99.70;;;;;;4953400;28;20449;-65
2021/01/28 08:45:13;;;;;;;15.90;8.10;;;3.40;99.70;;;;;;4951868;29;20824;-65
2021/01/28 08:47:40;;;;;;;14.03;7.50;;;3.40;99.70;;;;;;4958566;28;20513;-64
2021/01/28 08:50:13;;;;;;;14.10;7.63;;;3.50;99.70;;;;;;4944507;28;20456;-66
2021/01/28 08:52:40;;;;;;;14.20;6.73;;;3.60;99.70;;;;;;4952125;28;20765;-64
2021/01/28 08:55:12;;;;;;;17.27;7.27;;;3.60;99.70;;;;;;4951000;29;20433;-66
2021/01/28 08:57:39;;;;;;;15.30;7.33;;;3.60;99.70;;;;;;4951159;28;20678;-64
2021/01/28 09:00:10;;;;;;;14.17;7.00;;;3.60;99.70;;;;;;4950652;28;20510;-65
2021/01/28 09:02:39;;;;;;;13.13;6.37;;;3.60;99.70;;;;;;4951525;28;20871;-65
2021/01/28 09:05:15;;;;;;;13.90;6.57;;;3.70;99.70;;;;;;4956981;28;20456;-64
2021/01/28 09:07:49;;;;;;;11.87;6.10;;;3.70;99.70;;;;;;4951064;28;20459;-64
2021/01/28 09:10:25;;;;;;;13.27;6.30;;;3.80;99.70;;;;;;4952048;29;20969;-64
2021/01/28 09:12:51;;;;;;;11.30;6.17;;;3.80;99.70;;;;;;4952020;28;20465;-65
2021/01/28 09:15:21;;;;;;;12.77;6.63;;;3.80;99.70;;;;;;4951878;28;20459;-65
2021/01/28 09:17:48;;;;;;;14.93;7.30;;;3.90;99.70;;;;;;4950956;28;20451;-65
2021/01/28 09:20:23;;;;;;;12.47;6.87;;;3.90;99.70;;;;;;4951563;29;20444;-64
2021/01/28 09:23:04;;;;;;;16.27;6.97;;;3.90;99.70;;;;;;4956624;28;20490;-64
2021/01/28 09:25:30;;;;;;;13.63;7.00;;;3.90;99.70;;;;;;4950833;29;21012;-65
2021/01/28 09:28:00;;;;;;;12.47;6.90;;;3.90;99.70;;;;;;4953894;28;20456;-64
2021/01/28 09:30:33;;;;;;;14.90;7.60;;;3.90;99.70;;;;;;4970058;28;20451;-64
2021/01/28 09:32:59;;;;;;;16.13;7.37;;;3.90;99.70;;;;;;4950419;28;20464;-65
2021/01/28 09:35:27;;;;;;;13.03;7.20;;;3.90;99.70;;;;;;4951337;29;20444;-65
2021/01/28 09:38:06;;;;;;;15.53;7.50;;;3.90;99.70;;;;;;4958233;28;20534;-64
2021/01/28 09:40:36;;;;;;;12.83;7.07;;;4.00;99.70;;;;;;4951410;29;20452;-65
2021/01/28 09:43:24;;;;;;;12.90;6.43;;;4.10;99.70;;;;;;4967870;28;20499;-64
2021/01/28 09:46:09;;;;;;;14.93;7.00;;;4.10;99.70;;;;;;4972514;28;20965;-62
2021/01/28 09:48:35;;;;;;;11.97;6.90;;;4.10;99.70;;;;;;4938163;28;20511;-63
2021/01/28 09:51:02;;;;;;;10.00;5.70;;;4.10;99.70;;;;;;4952169;29;20476;-65
2021/01/28 09:53:29;;;;;;;14.43;6.93;;;4.20;99.70;;;;;;4950397;28;20468;-66
2021/01/28 09:55:55;;;;;;;13.53;6.80;;;4.20;99.70;;;;;;4938053;28;20791;-65
2021/01/28 09:58:22;;;;;;;12.50;6.10;;;4.20;99.70;;;;;;4969493;28;20454;-65
2021/01/28 10:00:48;;;;;;;16.07;7.80;;;4.20;99.70;;;;;;4953260;28;20965;-66
2021/01/28 10:03:15;;;;;;;17.23;8.53;;;4.30;99.70;;;;;;4952231;28;20483;-64
2021/01/28 10:05:41;;;;;;;12.23;6.17;;;4.30;99.70;;;;;;4950959;29;20444;-64
2021/01/28 10:08:09;;;;;;;11.23;5.00;;;4.30;99.70;;;;;;4950542;28;20523;-64
2021/01/28 10:10:38;;;;;;;8.83;5.50;;;4.30;99.70;;;;;;4946575;28;20471;-64
2021/01/28 10:13:08;;;;;;;7.90;5.10;;;4.40;99.70;;;;;;4958527;28;20475;-64
2021/01/28 10:15:34;;;;;;;9.70;5.23;;;4.30;99.70;;;;;;4973714;28;20475;-65
2021/01/28 10:18:00;;;;;;;9.80;5.80;;;4.40;99.70;;;;;;4965690;28;20478;-64
2021/01/28 10:20:27;;;;;;;8.90;5.40;;;4.40;99.70;;;;;;4974181;28;20454;-65
2021/01/28 10:22:57;;;;;;;8.63;4.80;;;4.40;99.70;;;;;;4956041;28;20487;-65
2021/01/28 10:25:24;;;;;;;9.20;4.77;;;4.40;99.70;;;;;;4953933;29;20448;-66
2021/01/28 10:27:50;;;;;;;8.10;3.60;;;4.40;99.70;;;;;;4955711;28;20459;-64
2021/01/28 10:30:18;;;;;;;10.13;3.83;;;4.50;99.70;;;;;;4954156;28;20463;-65
2021/01/28 10:32:46;;;;;;;6.83;3.30;;;4.50;99.70;;;;;;4969742;28;20455;-64
2021/01/28 10:35:15;;;;;;;4.03;2.67;;;4.70;99.70;;;;;;4973648;28;20924;-65
2021/01/28 10:37:42;;;;;;;4.50;2.60;;;4.80;99.70;;;;;;4959460;28;20518;-65
2021/01/28 10:40:09;;;;;;;4.30;2.63;;;4.90;99.70;;;;;;4954538;28;20448;-64
2021/01/28 10:42:40;;;;;;;2.97;2.10;;;5.00;99.70;;;;;;4954909;28;20965;-64
2021/01/28 10:45:10;;;;;;;3.37;2.27;;;5.10;99.70;;;;;;4970975;28;20451;-64
2021/01/28 10:47:36;;;;;;;3.27;2.00;;;5.20;99.70;;;;;;4953901;28;20448;-65
2021/01/28 10:50:04;;;;;;;3.60;2.03;;;5.20;99.70;;;;;;4955086;29;20459;-64
2021/01/28 10:52:30;;;;;;;2.10;1.80;;;5.20;99.70;;;;;;4959976;28;20452;-64
2021/01/28 10:54:57;;;;;;;2.77;2.00;;;5.20;99.70;;;;;;4952778;29;20452;-63
2021/01/28 10:57:23;;;;;;;2.40;2.00;;;5.20;99.70;;;;;;4953846;29;20452;-66
2021/01/28 10:59:49;;;;;;;2.70;1.90;;;5.20;99.70;;;;;;4954463;29;20447;-65
2021/01/28 11:02:15;;;;;;;3.47;2.00;;;5.20;99.70;;;;;;4954376;29;20942;-63
2021/01/28 11:04:42;;;;;;;2.60;1.90;;;5.20;99.70;;;;;;4953611;28;20495;-65
2021/01/28 11:07:08;;;;;;;4.50;2.40;;;5.30;99.70;;;;;;4952980;28;20452;-64
2021/01/28 11:09:35;;;;;;;4.60;2.93;;;5.40;99.70;;;;;;4952918;28;20456;-64
2021/01/28 11:12:02;;;;;;;3.70;2.20;;;5.40;99.70;;;;;;4952563;28;20781;-63
2021/01/28 11:14:28;;;;;;;3.10;1.90;;;5.50;99.70;;;;;;4952423;28;20499;-64
2021/01/28 11:16:54;;;;;;;3.20;2.37;;;5.50;99.70;;;;;;4970754;28;20447;-64
2021/01/28 11:19:20;;;;;;;4.00;2.20;;;5.50;99.70;;;;;;4954795;28;20452;-65
2021/01/28 11:21:47;;;;;;;4.23;2.07;;;5.50;99.70;;;;;;4969913;28;20517;-64
2021/01/28 11:24:13;;;;;;;4.63;2.60;;;5.60;99.70;;;;;;4967444;28;20863;-65
2021/01/28 11:26:39;;;;;;;3.70;2.30;;;5.60;99.70;;;;;;4966628;28;20455;-65
2021/01/28 11:29:06;;;;;;;6.03;3.10;;;5.60;99.70;;;;;;4972868;28;20494;-64
2021/01/28 11:31:33;;;;;;;3.60;2.57;;;5.60;99.70;;;;;;4971484;28;20458;-64
2021/01/28 11:33:59;;;;;;;4.60;2.67;;;5.60;99.70;;;;;;4966027;28;20456;-64
2021/01/28 11:36:25;;;;;;;3.47;2.30;;;5.50;99.70;;;;;;4954431;28;20634;-65
2021/01/28 11:38:51;;;;;;;3.17;2.20;;;5.60;99.70;;;;;;4953023;29;20452;-64
2021/01/28 11:41:17;;;;;;;3.40;2.00;;;5.70;99.70;;;;;;4969900;28;20498;-64
2021/01/28 11:43:43;;;;;;;2.63;1.93;;;5.80;99.70;;;;;;4972123;28;20490;-65
2021/01/28 11:46:10;;;;;;;3.20;2.03;;;5.80;99.70;;;;;;4969564;28;20459;-65
2021/01/28 11:48:36;;;;;;;3.30;2.00;;;5.90;99.70;;;;;;4972289;28;20972;-65
2021/01/28 11:51:03;;;;;;;3.77;2.20;;;6.00;99.70;;;;;;4956539;28;20452;-64
2021/01/28 11:53:29;;;;;;;6.17;2.60;;;6.00;99.70;;;;;;4957104;28;20455;-65
2021/01/28 11:55:55;;;;;;;5.20;2.30;;;6.10;99.70;;;;;;4965657;28;20498;-65
2021/01/28 11:58:22;;;;;;;2.77;2.17;;;6.20;99.70;;;;;;4952102;28;20476;-64
2021/01/28 12:00:48;;;;;;;2.73;1.70;;;6.10;99.70;;;;;;4953194;28;20468;-64
2021/01/28 12:03:15;;;;;;;2.10;1.70;;;6.20;99.70;;;;;;4952767;28;20796;-66
2021/01/28 12:05:42;;;;;;;4.53;1.90;;;6.20;99.70;;;;;;4952904;29;20539;-64
2021/01/28 12:08:08;;;;;;;3.10;2.00;;;6.20;99.70;;;;;;4951919;29;20451;-65
2021/01/28 12:10:34;;;;;;;3.40;1.90;;;6.20;99.70;;;;;;4953108;29;20457;-64
2021/01/28 12:13:01;;;;;;;2.70;2.07;;;6.30;99.70;;;;;;4951754;28;20997;-65
2021/01/28 12:15:28;;;;;;;3.23;1.87;;;6.40;99.70;;;;;;4952304;29;20445;-66
2021/01/28 12:17:54;;;;;;;2.30;1.87;;;6.50;99.70;;;;;;4950563;28;20459;-63
2021/01/28 12:20:24;;;;;;;2.43;1.90;;;6.70;99.70;;;;;;4951878;29;20440;-64
2021/01/28 12:22:51;;;;;;;3.03;2.00;;;6.70;99.70;;;;;;4953891;28;20471;-63
2021/01/28 12:25:18;;;;;;;2.20;1.93;;;6.80;99.70;;;;;;4950340;29;20471;-66
2021/01/28 12:27:44;;;;;;;2.57;2.10;;;6.80;99.70;;;;;;4948447;29;20518;-64
2021/01/28 12:30:13;;;;;;;3.33;2.20;;;6.80;99.70;;;;;;4946364;29;20872;-65
2021/01/28 12:32:39;;;;;;;2.60;2.00;;;6.80;99.70;;;;;;4946327;28;20536;-64
2021/01/28 12:35:07;;;;;;;2.37;2.10;;;6.90;99.70;;;;;;4949149;28;20817;-65
2021/01/28 12:37:34;;;;;;;2.87;1.70;;;7.00;99.70;;;;;;4951774;28;21054;-65
2021/01/28 12:40:00;;;;;;;2.67;1.90;;;7.10;99.70;;;;;;4952151;29;20460;-65
2021/01/28 12:42:27;;;;;;;2.60;2.00;;;7.20;99.70;;;;;;4950885;29;20444;-64
2021/01/28 12:44:53;;;;;;;2.97;2.13;;;7.20;99.70;;;;;;4948381;29;20748;-65
2021/01/28 12:47:20;;;;;;;4.53;1.93;;;7.30;99.70;;;;;;4951210;29;20656;-65
2021/01/28 12:49:47;;;;;;;3.13;2.10;;;7.30;99.70;;;;;;4948453;29;20543;-64
2021/01/28 12:52:13;;;;;;;3.07;1.90;;;7.30;99.70;;;;;;4951349;29;20633;-65
2021/01/28 12:54:41;;;;;;;3.90;2.07;;;7.40;99.70;;;;;;4950904;28;20524;-65
2021/01/28 12:57:08;;;;;;;2.50;1.87;;;7.40;99.70;;;;;;4951501;29;20816;-64
2021/01/28 12:59:34;;;;;;;4.33;1.97;;;7.30;99.70;;;;;;4950918;28;20931;-65
2021/01/28 13:02:00;;;;;;;2.40;1.80;;;7.40;99.70;;;;;;4951712;29;20817;-65
2021/01/28 13:04:26;;;;;;;2.60;2.00;;;7.50;99.70;;;;;;4947276;28;20484;-65